Airfield :
LOGIN :

Register | Disclaimer

   EN    FR    IT 

 










Legend :    VFR   Marginal VFR   IFR   Intensive IFR   Very Intensive IFR
Visi :
Ceiling :
>= 8 km
>= 3000ft
5 to 8 km
1000 to 3000 ft
1500m to 5 km
500 to 1000 ft
800 to 1500m
200 to 500 ft
< 800m
< 200 ft
Symbols :   Thunderstorms  Fog  Heavy snow  Heavy precipitations  Wind > 20 kt
SIGMETs :     Misc.  Thunderstorms  Icing  Turbulence  Mountain Waves  Volcanic Ashes






- Airport Elevation : 23 ft
- IATA code : XFW


EDHI - Hamburg Finkenwerder

CURRENT METAR :
  • 120550Z 20007KT 4400 BR FEW007 SCT009 BKN018 04/04 Q1000

EXPIRED METARs :
  • 120520Z 20006KT 180V250 4800 BR BKN018 04/03 Q1000
  • 120450Z AUTO 20004KT 5000 // FEW008/// OVC023/// 04/03 Q1000
  • 120420Z AUTO 21005KT 4700 // FEW009/// OVC022/// 04/04 Q1001
  • 120350Z AUTO 22007KT 4500 // FEW007/// OVC017/// 05/04 Q1001
  • 120320Z AUTO 21006KT 3700 // FEW007/// OVC019/// 04/04 Q1001

TAF TAF EDHI
Valid from the 12 at 06:00 until the 12 at 15:00 UTC


120530Z 1206/1215 21008KT 9999 BKN020
TEMPO 1206/1210 4500 BR BKN008
PROB40
TEMPO 1210/1215 BKN014



MET'MAP, your aeronautical weather chart ! - Copyright ORBIFLY December 2007 - Disclaimer

ORBIFLY MET'MAP TEAM :

Programming & Development : Alexandra Zaïnal
Concept & original design : Baudouin d'Aumeries
Assistance for programming : Marc-Olivier Méhu
Technical & hardware support : Manuel Goepfert

Contact : metmap@orbifly.com




SOURCES & CREDITS :

   NOAA